Time;durP1;ratioP1;P1;durP2;ratioP2;P2;SDS_P1;SDS_P2;PMS_P1;PMS_P2;Temp;Humidity;BMP_temperature;BMP_pressure;BME280_temperature;BME280_humidity;BME280_pressure;Samples;Min_cycle;Max_cycle;Signal;HPM_P1;HPM_P2
2023/07/07 00:00:50;;;;;;;;;3.50;3.50;;;;;13.88;60.51;100280.56;5013325;28;8898;-59
2023/07/07 00:03:18;;;;;;;;;0.75;0.75;;;;;13.85;60.61;100279.00;5013117;28;8858;-59
2023/07/07 00:05:46;;;;;;;;;2.00;2.00;;;;;13.79;60.60;100276.84;5014227;28;8841;-59
2023/07/07 00:08:14;;;;;;;;;4.00;4.00;;;;;13.76;60.78;100276.28;5012446;28;8826;-59
2023/07/07 00:10:42;;;;;;;;;3.25;3.00;;;;;13.75;60.96;100290.66;5019815;28;8824;-59
2023/07/07 00:13:10;;;;;;;;;2.50;2.50;;;;;13.71;60.84;100276.69;5030737;28;8816;-59
2023/07/07 00:15:44;;;;;;;;;3.00;3.00;;;;;13.67;60.79;100269.06;5032450;28;8840;-61
2023/07/07 00:18:12;;;;;;;;;3.25;3.00;;;;;13.66;60.61;100286.09;5031712;28;8840;-60
2023/07/07 00:20:40;;;;;;;;;4.00;4.00;;;;;13.64;60.57;100285.34;5032460;28;8836;-60
2023/07/07 00:23:07;;;;;;;;;3.50;3.50;;;;;13.62;60.35;100281.97;5031326;28;8828;-58
2023/07/07 00:25:35;;;;;;;;;5.50;5.50;;;;;13.61;60.74;100285.63;5028977;28;8850;-57
2023/07/07 00:28:03;;;;;;;;;3.00;3.00;;;;;13.59;60.83;100287.59;5015330;28;8840;-58
2023/07/07 00:30:31;;;;;;;;;3.00;3.00;;;;;13.59;60.55;100274.22;5031787;28;8832;-61
2023/07/07 00:32:59;;;;;;;;;3.00;3.00;;;;;13.58;60.75;100277.88;5032562;28;8856;-60
2023/07/07 00:35:27;;;;;;;;;3.50;3.00;;;;;13.57;60.99;100274.34;5028255;28;8851;-60
2023/07/07 00:37:54;;;;;;;;;3.25;3.25;;;;;13.56;61.55;100269.13;5022189;28;8816;-61
2023/07/07 00:40:22;;;;;;;;;3.25;3.00;;;;;13.52;60.87;100273.06;5016668;28;8844;-61
2023/07/07 00:42:49;;;;;;;;;3.00;3.00;;;;;13.48;61.01;100275.16;5011944;28;8862;-60
2023/07/07 00:45:17;;;;;;;;;3.00;3.00;;;;;13.45;61.53;100279.91;5012050;28;8830;-60
2023/07/07 00:47:45;;;;;;;;;2.00;2.00;;;;;13.43;60.85;100271.19;5012210;28;8846;-60
2023/07/07 00:50:13;;;;;;;;;1.00;1.00;;;;;13.41;61.59;100276.66;5012412;28;8956;-58
2023/07/07 00:52:40;;;;;;;;;4.00;4.00;;;;;13.39;61.87;100289.31;5012929;28;8842;-60
2023/07/07 00:55:08;;;;;;;;;4.00;3.50;;;;;13.35;61.55;100285.19;5012524;28;8845;-60
2023/07/07 00:57:36;;;;;;;;;3.75;3.75;;;;;13.34;61.71;100279.97;5015925;28;8822;-59
2023/07/07 01:00:04;;;;;;;;;4.00;4.00;;;;;13.33;61.32;100273.78;5012560;28;8834;-60
2023/07/07 01:02:31;;;;;;;;;4.75;4.00;;;;;13.31;61.65;100277.56;5018765;28;8823;-60
2023/07/07 01:04:59;;;;;;;;;3.75;3.00;;;;;13.29;61.34;100276.88;5031107;28;8838;-60
2023/07/07 01:07:28;;;;;;;;;6.00;6.00;;;;;13.27;61.36;100278.78;5015827;28;8849;-61
2023/07/07 01:09:56;;;;;;;;;4.50;4.00;;;;;13.24;61.87;100281.75;5017396;28;8866;-61
2023/07/07 01:12:24;;;;;;;;;3.00;3.00;;;;;13.19;61.97;100275.94;5019166;28;8834;-61
2023/07/07 01:14:52;;;;;;;;;3.00;3.00;;;;;13.14;61.46;100276.31;5032246;28;8834;-60
2023/07/07 01:17:19;;;;;;;;;3.50;3.25;;;;;13.08;61.80;100270.66;5019111;28;8811;-59
2023/07/07 01:19:47;;;;;;;;;3.75;3.00;;;;;13.03;62.25;100264.84;5032166;28;8856;-61
2023/07/07 01:22:14;;;;;;;;;1.50;1.50;;;;;12.98;61.97;100270.56;5034548;28;8812;-60
2023/07/07 01:24:42;;;;;;;;;3.00;3.00;;;;;12.96;62.13;100277.03;5035004;28;8832;-60
2023/07/07 01:27:10;;;;;;;;;3.50;3.00;;;;;12.94;62.24;100270.94;5035215;28;8840;-59
2023/07/07 01:29:38;;;;;;;;;4.00;4.00;;;;;12.92;62.34;100271.06;5034589;28;8848;-58
2023/07/07 01:32:06;;;;;;;;;4.00;4.00;;;;;12.89;62.22;100268.66;5034531;28;8840;-58
2023/07/07 01:34:34;;;;;;;;;4.00;4.00;;;;;12.87;62.25;100273.28;5035627;28;8800;-58
2023/07/07 01:37:02;;;;;;;;;4.00;3.75;;;;;12.87;62.44;100272.41;5035789;28;8844;-58
2023/07/07 01:39:29;;;;;;;;;3.50;3.50;;;;;12.86;62.15;100276.06;5035489;28;8828;-60
2023/07/07 01:41:57;;;;;;;;;2.50;2.50;;;;;12.85;62.41;100275.22;5035255;28;8847;-59
2023/07/07 01:44:25;;;;;;;;;3.50;3.00;;;;;12.81;62.13;100267.59;5035312;28;8854;-59
2023/07/07 01:46:53;;;;;;;;;2.50;2.50;;;;;12.75;62.58;100278.81;5035838;28;8839;-57
2023/07/07 01:49:20;;;;;;;;;1.00;1.00;;;;;12.68;62.81;100282.97;5035083;28;8836;-59
2023/07/07 01:51:48;;;;;;;;;3.50;3.50;;;;;12.60;62.84;100280.91;5035115;28;8844;-58
2023/07/07 01:54:16;;;;;;;;;3.00;3.00;;;;;12.55;62.85;100282.28;5035066;28;8836;-60
2023/07/07 01:56:44;;;;;;;;;5.75;5.00;;;;;12.49;62.87;100272.09;5035025;28;8828;-58
2023/07/07 01:59:12;;;;;;;;;0.00;0.00;;;;;12.45;63.49;100278.66;5035196;28;8836;-59
2023/07/07 02:01:39;;;;;;;;;2.00;2.00;;;;;12.41;63.47;100272.72;5024345;28;8826;-57
2023/07/07 02:04:07;;;;;;;;;4.50;4.00;;;;;12.39;63.05;100273.81;5015047;28;8870;-58
2023/07/07 02:06:35;;;;;;;;;3.00;3.00;;;;;12.39;63.26;100271.97;5026859;28;8820;-57
2023/07/07 02:09:02;;;;;;;;;2.00;2.00;;;;;12.39;63.51;100263.13;5035170;28;8824;-57
2023/07/07 02:11:30;;;;;;;;;3.75;3.75;;;;;12.38;63.49;100269.47;5033101;28;8830;-58
2023/07/07 02:13:58;;;;;;;;;5.00;3.50;;;;;12.38;63.21;100267.63;5034912;28;8863;-59
2023/07/07 02:16:27;;;;;;;;;6.00;4.00;;;;;12.38;63.83;100256.94;5034297;28;8820;-59
2023/07/07 02:18:55;;;;;;;;;3.00;1.50;;;;;12.39;63.37;100258.63;5035362;28;8832;-60
2023/07/07 02:21:22;;;;;;;;;3.00;3.00;;;;;12.38;63.00;100264.13;5024715;28;8835;-58
2023/07/07 02:23:50;;;;;;;;;3.00;3.00;;;;;12.37;63.28;100252.56;5035068;28;8831;-60
2023/07/07 02:26:18;;;;;;;;;3.75;3.25;;;;;12.37;63.46;100263.25;5026494;28;8826;-58
2023/07/07 02:28:46;;;;;;;;;4.00;4.00;;;;;12.38;62.84;100258.78;5014934;28;8838;-59
2023/07/07 02:31:14;;;;;;;;;3.50;3.50;;;;;12.36;63.42;100263.38;5016221;28;9503;-60
2023/07/07 02:33:41;;;;;;;;;1.50;1.50;;;;;12.33;63.66;100255.63;5014351;28;8829;-60
2023/07/07 02:36:11;;;;;;;;;3.00;3.00;;;;;12.31;63.12;100265.59;5014753;28;8826;-60
2023/07/07 02:38:39;;;;;;;;;6.00;6.00;;;;;12.28;63.56;100263.16;5015727;28;8973;-59
2023/07/07 02:41:07;;;;;;;;;3.50;3.50;;;;;12.24;63.23;100280.41;5014722;28;8845;-57
2023/07/07 02:43:35;;;;;;;;;3.25;3.25;;;;;12.22;63.64;100274.31;5014937;28;8818;-57
2023/07/07 02:46:02;;;;;;;;;4.00;4.00;;;;;12.19;63.53;100269.25;5014613;28;8826;-59
2023/07/07 02:48:30;;;;;;;;;5.00;5.00;;;;;12.13;63.39;100269.72;5014423;28;8830;-59
2023/07/07 02:50:57;;;;;;;;;4.00;4.00;;;;;12.08;63.84;100277.28;5029035;28;8835;-59
2023/07/07 02:53:26;;;;;;;;;3.00;3.00;;;;;12.04;63.89;100270.47;5033858;28;8865;-58
2023/07/07 02:55:53;;;;;;;;;3.50;3.00;;;;;12.00;64.13;100277.88;5034139;28;8820;-59
2023/07/07 03:01:09;;;;;;;;;4.00;4.00;;;;;11.93;63.99;100281.19;5034469;28;8832;-60
2023/07/07 03:03:37;;;;;;;;;1.00;1.00;;;;;11.90;64.12;100269.91;5018508;28;8885;-59
2023/07/07 03:06:05;;;;;;;;;1.00;0.00;;;;;11.88;64.43;100278.03;5015311;28;8846;-58
2023/07/07 03:08:32;;;;;;;;;3.25;3.25;;;;;11.87;64.22;100276.31;5014120;28;8830;-59
2023/07/07 03:11:00;;;;;;;;;5.50;5.00;;;;;11.87;64.48;100275.47;5014146;28;8830;-59
2023/07/07 03:13:28;;;;;;;;;2.50;1.00;;;;;11.87;64.19;100278.13;5015196;28;8831;-58
2023/07/07 03:15:55;;;;;;;;;3.00;3.00;;;;;11.87;64.20;100278.13;5014179;28;8948;-59
2023/07/07 03:18:23;;;;;;;;;3.50;3.50;;;;;11.88;64.12;100272.69;5023887;28;9477;-56
2023/07/07 03:20:52;;;;;;;;;4.50;4.50;;;;;11.89;63.77;100266.38;5033558;28;8827;-58
2023/07/07 03:23:19;;;;;;;;;3.25;3.25;;;;;11.91;64.02;100269.75;5034109;28;8828;-58
2023/07/07 03:25:47;;;;;;;;;6.00;4.00;;;;;11.92;64.34;100275.94;5033999;28;8844;-59
2023/07/07 03:28:15;;;;;;;;;4.00;4.00;;;;;11.93;63.86;100276.66;5033642;28;8816;-58
2023/07/07 03:30:42;;;;;;;;;3.50;3.00;;;;;11.95;63.62;100281.91;5034066;28;9490;-60
2023/07/07 03:33:12;;;;;;;;;3.25;3.25;;;;;11.97;64.08;100284.44;5033239;28;9810;-59
2023/07/07 03:35:39;;;;;;;;;1.00;1.00;;;;;11.99;64.20;100286.00;5033437;28;8820;-58
2023/07/07 03:38:07;;;;;;;;;3.00;3.00;;;;;11.99;64.20;100286.00;5032679;28;8824;-60
2023/07/07 03:40:35;;;;;;;;;3.00;3.00;;;;;11.99;63.84;100286.00;5033059;28;8827;-59
2023/07/07 03:43:03;;;;;;;;;1.00;1.00;;;;;12.00;63.81;100285.06;5033543;28;8827;-60
2023/07/07 03:45:31;;;;;;;;;3.00;3.00;;;;;12.02;63.39;100297.28;5032819;28;8844;-59
2023/07/07 03:47:58;;;;;;;;;3.25;3.25;;;;;12.06;64.12;100295.22;5032376;28;8867;-59
2023/07/07 03:50:26;;;;;;;;;3.00;3.00;;;;;12.07;63.93;100297.78;5032901;28;9525;-60
2023/07/07 03:52:54;;;;;;;;;3.00;3.00;;;;;12.12;63.74;100297.41;5032404;28;8851;-59
2023/07/07 03:55:22;;;;;;;;;4.00;4.00;;;;;12.18;63.21;100294.25;5032530;28;8859;-59
2023/07/07 03:57:49;;;;;;;;;1.50;1.50;;;;;12.20;63.47;100294.97;5032511;28;8870;-58
2023/07/07 04:00:17;;;;;;;;;4.50;4.50;;;;;12.25;63.36;100298.13;5032273;28;8843;-57
2023/07/07 04:02:45;;;;;;;;;6.00;6.00;;;;;12.27;63.55;100301.50;5032681;28;8846;-59
2023/07/07 04:05:14;;;;;;;;;4.50;4.00;;;;;12.28;63.23;100305.88;5018513;28;8842;-60
2023/07/07 04:07:42;;;;;;;;;4.50;4.50;;;;;12.30;63.35;100314.63;5013086;28;8891;-59
2023/07/07 04:10:09;;;;;;;;;3.00;3.00;;;;;12.32;63.22;100310.00;5012995;28;8853;-58
2023/07/07 04:12:38;;;;;;;;;6.25;5.75;;;;;12.32;63.38;100307.34;5014300;28;8822;-60
2023/07/07 04:15:05;;;;;;;;;2.50;2.50;;;;;12.33;63.65;100311.69;5014327;28;8821;-60
2023/07/07 04:17:33;;;;;;;;;5.50;4.50;;;;;12.35;63.36;100312.41;5014079;28;9465;-60
2023/07/07 04:20:02;;;;;;;;;6.00;4.00;;;;;12.41;62.88;100311.94;5013980;28;8922;-59
2023/07/07 04:22:29;;;;;;;;;3.25;3.25;;;;;12.48;62.99;100314.00;5012966;28;8837;-60
2023/07/07 04:24:57;;;;;;;;;6.00;4.50;;;;;12.55;62.46;100319.66;5012931;28;8806;-59
2023/07/07 04:27:25;;;;;;;;;4.00;4.00;;;;;12.63;62.78;100319.88;5013062;28;8864;-60
2023/07/07 04:29:53;;;;;;;;;5.50;4.00;;;;;12.70;62.17;100315.75;5022475;28;8852;-59
2023/07/07 04:32:20;;;;;;;;;4.50;4.00;;;;;12.79;62.46;100315.84;5018627;28;8836;-59
2023/07/07 04:34:48;;;;;;;;;6.25;5.00;;;;;12.89;61.89;100313.22;5012696;28;9543;-59
2023/07/07 04:37:16;;;;;;;;;3.25;3.25;;;;;13.00;62.26;100311.38;5024707;28;8804;-59
2023/07/07 04:39:44;;;;;;;;;4.00;4.00;;;;;13.10;61.99;100316.81;5030770;28;8819;-59
2023/07/07 04:42:12;;;;;;;;;6.00;4.00;;;;;13.19;61.61;100316.03;5025984;28;8819;-59
2023/07/07 04:44:39;;;;;;;;;2.00;2.00;;;;;13.29;61.41;100322.34;5020601;28;8831;-59
2023/07/07 04:47:07;;;;;;;;;4.00;4.00;;;;;13.37;61.90;100319.84;5032451;28;8948;-60
2023/07/07 04:49:35;;;;;;;;;4.00;3.50;;;;;13.45;61.80;100314.69;5031877;28;8836;-60
2023/07/07 04:52:02;;;;;;;;;1.00;1.00;;;;;13.56;61.27;100304.78;5032838;28;8859;-59
2023/07/07 04:54:30;;;;;;;;;4.00;4.00;;;;;13.71;61.21;100308.81;5025598;28;8890;-60
2023/07/07 04:56:58;;;;;;;;;6.00;6.00;;;;;13.89;61.21;100317.06;5014690;28;8826;-60
2023/07/07 04:59:26;;;;;;;;;6.00;6.00;;;;;14.06;60.69;100308.41;5016031;28;8822;-60
2023/07/07 05:01:53;;;;;;;;;4.00;4.00;;;;;14.20;59.98;100308.91;5016180;28;8826;-59
2023/07/07 05:04:21;;;;;;;;;6.25;6.25;;;;;14.33;60.51;100312.19;5017466;28;8854;-58
2023/07/07 05:06:49;;;;;;;;;6.75;6.75;;;;;14.46;60.27;100307.44;5017971;28;8862;-60
2023/07/07 05:09:17;;;;;;;;;3.25;3.00;;;;;14.61;60.01;100300.69;5033987;28;9470;-59
2023/07/07 05:11:45;;;;;;;;;5.50;5.50;;;;;14.73;60.02;100306.78;5033811;28;8827;-60
2023/07/07 05:14:13;;;;;;;;;4.50;4.50;;;;;14.85;59.92;100311.00;5015842;28;8830;-60
2023/07/07 05:16:41;;;;;;;;;4.00;3.50;;;;;14.95;59.98;100306.50;5015567;28;8838;-60
2023/07/07 05:19:09;;;;;;;;;4.50;3.75;;;;;15.08;60.06;100299.88;5016487;28;8838;-58
2023/07/07 05:21:36;;;;;;;;;5.00;5.00;;;;;15.22;59.67;100301.25;5031139;28;8830;-58
2023/07/07 05:24:04;;;;;;;;;3.50;3.00;;;;;15.35;59.38;100304.53;5035010;28;8839;-58
2023/07/07 05:26:31;;;;;;;;;3.25;3.00;;;;;15.45;59.00;100302.69;5034559;28;8954;-59
2023/07/07 05:28:59;;;;;;;;;5.00;5.00;;;;;15.55;58.98;100303.53;5035065;28;8840;-58
2023/07/07 05:31:28;;;;;;;;;4.00;4.00;;;;;15.64;58.77;100311.53;5034694;28;8947;-58
2023/07/07 05:33:57;;;;;;;;;6.00;5.50;;;;;15.71;58.46;100315.34;5034882;28;8831;-60
2023/07/07 05:36:24;;;;;;;;;7.00;6.00;;;;;15.77;58.81;100313.94;5034844;28;8824;-60
2023/07/07 05:38:52;;;;;;;;;4.50;4.50;;;;;15.84;58.90;100315.03;5035149;28;8897;-58
2023/07/07 05:41:20;;;;;;;;;8.50;7.00;;;;;15.94;58.31;100315.84;5035271;28;8846;-59
2023/07/07 05:43:48;;;;;;;;;4.00;4.00;;;;;16.04;58.31;100313.97;5035937;28;8820;-58
2023/07/07 05:46:15;;;;;;;;;6.00;5.00;;;;;16.16;58.24;100312.78;5034973;28;8848;-58
2023/07/07 05:48:43;;;;;;;;;4.00;4.00;;;;;16.28;58.25;100307.06;5034680;28;9004;-57
2023/07/07 05:51:11;;;;;;;;;5.50;5.50;;;;;16.42;57.42;100306.59;5034755;28;8840;-60
2023/07/07 05:53:41;;;;;;;;;6.50;6.00;;;;;16.57;57.21;100305.09;5034504;28;8870;-58
2023/07/07 05:56:09;;;;;;;;;6.50;6.50;;;;;16.70;57.44;100301.03;5034317;28;8828;-59
2023/07/07 05:58:36;;;;;;;;;6.50;6.50;;;;;16.84;56.70;100305.91;5034678;28;9558;-59
2023/07/07 06:01:06;;;;;;;;;4.00;4.00;;;;;16.96;56.80;100296.63;5034821;28;8832;-59
2023/07/07 06:03:33;;;;;;;;;2.00;1.50;;;;;17.09;56.72;100304.28;5034746;28;8832;-60
2023/07/07 06:06:01;;;;;;;;;5.50;5.50;;;;;17.18;56.91;100306.91;5019077;28;8854;-60
2023/07/07 06:08:32;;;;;;;;;6.00;5.20;;;;;17.28;56.58;100301.41;5026679;28;8816;-60
2023/07/07 06:11:00;;;;;;;;;5.60;4.00;;;;;17.37;56.39;100301.38;5032538;28;9512;-59
2023/07/07 06:13:28;;;;;;;;;9.00;6.60;;;;;17.48;56.52;100301.09;5018683;28;8848;-60
2023/07/07 06:15:56;;;;;;;;;5.60;4.80;;;;;17.63;56.36;100298.69;5014872;28;8950;-60
2023/07/07 06:18:24;;;;;;;;;5.00;3.80;;;;;17.78;55.57;100300.63;5014258;28;8842;-60
2023/07/07 06:20:52;;;;;;;;;3.00;3.00;;;;;17.94;55.93;100295.38;5014306;28;8842;-59
2023/07/07 06:23:20;;;;;;;;;6.00;4.80;;;;;18.09;55.81;100288.38;5013535;28;8841;-60
2023/07/07 06:25:48;;;;;;;;;4.00;4.00;;;;;18.24;55.15;100297.56;5013644;28;8950;-60
2023/07/07 06:28:16;;;;;;;;;4.00;3.80;;;;;18.39;55.05;100292.41;5020758;28;8854;-60
2023/07/07 06:30:44;;;;;;;;;4.00;4.00;;;;;18.54;54.64;100291.63;5033537;28;8878;-60
2023/07/07 06:33:12;;;;;;;;;4.00;4.00;;;;;18.70;54.47;100298.91;5033492;28;8991;-60
2023/07/07 06:35:40;;;;;;;;;4.00;4.00;;;;;18.85;54.48;100298.13;5033743;28;8982;-58
2023/07/07 06:38:08;;;;;;;;;3.80;3.40;;;;;18.97;54.42;100302.16;5031424;28;8831;-60
2023/07/07 06:40:35;;;;;;;;;3.00;3.00;;;;;19.10;54.27;100301.66;5032668;28;8834;-60
2023/07/07 06:43:03;;;;;;;;;4.80;4.80;;;;;19.22;53.81;100298.53;5022723;28;8831;-60
2023/07/07 06:45:32;;;;;;;;;3.00;1.80;;;;;19.36;53.53;100297.81;5013446;28;8837;-60
2023/07/07 06:48:02;;;;;;;;;4.20;4.00;;;;;19.51;53.85;100301.53;5013380;28;8890;-57
2023/07/07 06:50:30;;;;;;;;;0.80;0.80;;;;;19.64;53.21;100307.28;5013909;28;8966;-60
2023/07/07 06:52:58;;;;;;;;;4.00;4.00;;;;;19.77;53.71;100307.59;5013622;28;8850;-60
2023/07/07 06:55:26;;;;;;;;;3.80;3.40;;;;;19.91;53.77;100304.19;5013030;28;8830;-60
2023/07/07 06:57:55;;;;;;;;;4.00;3.60;;;;;20.05;53.23;100295.41;5014604;28;8857;-59
2023/07/07 07:00:23;;;;;;;;;4.00;4.00;;;;;20.20;52.70;100307.19;5030534;28;8850;-59
2023/07/07 07:02:50;;;;;;;;;3.80;3.60;;;;;20.30;52.90;100302.41;5032903;28;8979;-59
2023/07/07 07:05:18;;;;;;;;;4.00;4.00;;;;;20.43;52.67;100302.72;5031042;28;8827;-59
2023/07/07 07:07:47;;;;;;;;;2.00;2.00;;;;;20.56;52.08;100304.84;5032841;28;8954;-60
2023/07/07 07:10:15;;;;;;;;;2.80;2.80;;;;;20.67;52.45;100305.28;5030426;28;8836;-59
2023/07/07 07:12:43;;;;;;;;;4.20;3.60;;;;;20.78;52.16;100303.03;5023619;28;8830;-60
2023/07/07 07:15:11;;;;;;;;;4.40;4.40;;;;;20.91;52.13;100305.19;5024376;28;8912;-60
2023/07/07 07:17:40;;;;;;;;;4.80;4.60;;;;;20.99;51.74;100297.84;5031024;28;8922;-58
2023/07/07 07:20:08;;;;;;;;;5.00;4.40;;;;;21.08;52.00;100301.31;5020242;28;8836;-59
2023/07/07 07:22:36;;;;;;;;;4.00;4.00;;;;;21.18;51.65;100299.25;5031948;28;9539;-61
2023/07/07 07:25:04;;;;;;;;;1.00;1.00;;;;;21.31;51.30;100294.03;5032326;28;8846;-58
2023/07/07 07:27:32;;;;;;;;;4.40;4.40;;;;;21.45;51.15;100299.53;5031737;28;8960;-60
2023/07/07 07:29:59;;;;;;;;;3.60;1.80;;;;;21.59;50.94;100295.16;5032253;28;9494;-59
2023/07/07 07:32:28;;;;;;;;;2.80;2.80;;;;;21.73;50.85;100303.38;5031511;28;8868;-58
2023/07/07 07:34:56;;;;;;;;;7.00;5.80;;;;;21.86;50.97;100297.31;5031979;28;8912;-58
2023/07/07 07:37:24;;;;;;;;;1.40;1.20;;;;;21.98;50.46;100301.22;5032053;28;8908;-58
2023/07/07 07:39:52;;;;;;;;;4.00;4.00;;;;;22.10;50.59;100295.16;5031922;28;8839;-58
2023/07/07 07:42:22;;;;;;;;;4.00;4.00;;;;;22.23;50.64;100297.22;5032773;28;8843;-60
2023/07/07 07:44:51;;;;;;;;;4.20;2.80;;;;;22.35;50.01;100302.00;5032094;28;8840;-60
2023/07/07 07:47:19;;;;;;;;;2.00;2.00;;;;;22.46;50.57;100303.41;5032072;28;8847;-60
2023/07/07 07:49:47;;;;;;;;;6.40;5.60;;;;;22.57;50.28;100311.06;5032330;28;8940;-60
2023/07/07 07:52:15;;;;;;;;;5.00;5.00;;;;;22.68;49.96;100306.00;5033217;28;9517;-60
2023/07/07 07:54:43;;;;;;;;;4.20;3.60;;;;;22.79;49.58;100307.38;5032803;28;8852;-59
2023/07/07 07:57:11;;;;;;;;;5.00;4.00;;;;;22.90;50.00;100309.59;5032791;28;8863;-60
2023/07/07 07:59:39;;;;;;;;;4.60;4.60;;;;;23.02;49.79;100313.50;5032704;28;8901;-60
2023/07/07 08:02:07;;;;;;;;;5.20;5.20;;;;;23.12;49.44;100314.00;5032143;28;8828;-61
2023/07/07 08:04:35;;;;;;;;;4.00;4.00;;;;;23.24;49.51;100318.81;5022659;28;8903;-58
2023/07/07 08:07:03;;;;;;;;;2.40;2.40;;;;;23.39;49.63;100319.56;5012676;28;8834;-60
2023/07/07 08:09:32;;;;;;;;;4.00;4.00;;;;;23.55;49.28;100318.44;5017430;28;8816;-60
2023/07/07 08:12:00;;;;;;;;;5.80;4.80;;;;;23.70;48.72;100311.03;5019073;28;8826;-61
2023/07/07 08:14:33;;;;;;;;;3.60;1.80;;;;;23.81;48.77;100321.41;5012446;28;8826;-61
2023/07/07 08:17:02;;;;;;;;;4.00;2.40;;;;;23.91;48.94;100313.75;5013392;28;8935;-60
2023/07/07 08:19:30;;;;;;;;;3.20;3.20;;;;;24.03;48.92;100317.59;5011984;28;8831;-61
2023/07/07 08:21:58;;;;;;;;;2.00;2.00;;;;;24.13;48.57;100304.50;5030076;28;8908;-59
2023/07/07 08:24:27;;;;;;;;;2.80;2.40;;;;;24.24;48.68;100312.09;5030640;28;8844;-58
2023/07/07 08:26:55;;;;;;;;;3.20;3.20;;;;;24.35;48.12;100314.25;5030711;28;8832;-58
2023/07/07 08:29:25;;;;;;;;;2.00;2.00;;;;;24.46;48.13;100316.41;5031080;28;8836;-59
2023/07/07 08:31:54;;;;;;;;;2.00;2.00;;;;;24.56;47.81;100311.47;5024803;28;8890;-59
2023/07/07 08:34:22;;;;;;;;;2.60;2.00;;;;;24.68;47.70;100318.00;5034888;28;8881;-60
2023/07/07 08:36:59;;;;;;;;;2.00;2.00;;;;;24.77;47.79;100314.06;5027250;28;8941;-61
2023/07/07 08:39:29;;;;;;;;;3.80;3.20;;;;;24.88;47.48;100310.75;5016218;28;8848;-58
2023/07/07 08:41:58;;;;;;;;;5.60;3.00;;;;;24.99;47.67;100313.75;5034018;28;8852;-58
2023/07/07 08:44:26;;;;;;;;;2.60;2.40;;;;;25.12;47.59;100315.66;5032027;28;8874;-59
2023/07/07 08:46:54;;;;;;;;;2.20;2.20;;;;;25.20;46.60;100319.03;5031514;28;8860;-59
2023/07/07 08:49:22;;;;;;;;;3.20;2.00;;;;;25.27;46.78;100321.81;5024563;28;8852;-59
2023/07/07 08:51:50;;;;;;;;;3.00;3.00;;;;;25.34;47.06;100317.19;5034109;28;8824;-59
2023/07/07 08:54:18;;;;;;;;;1.40;1.40;;;;;25.42;47.17;100308.81;5032180;28;8872;-59
2023/07/07 08:56:46;;;;;;;;;1.40;1.40;;;;;25.50;46.54;100316.78;5016618;28;8810;-59
2023/07/07 08:59:14;;;;;;;;;2.20;2.20;;;;;25.59;46.47;100306.31;5015781;28;8922;-59
2023/07/07 09:01:42;;;;;;;;;3.00;2.60;;;;;25.69;45.91;100306.75;5015082;28;8900;-59
2023/07/07 09:04:10;;;;;;;;;2.00;2.00;;;;;25.79;46.13;100309.03;5016063;28;8842;-58
2023/07/07 09:06:38;;;;;;;;;2.00;2.00;;;;;25.86;45.86;100308.00;5016027;28;8850;-59
2023/07/07 09:09:06;;;;;;;;;1.20;0.60;;;;;25.94;46.13;100301.50;5033774;28;8856;-58
2023/07/07 09:11:36;;;;;;;;;1.80;1.80;;;;;26.08;45.73;100308.63;5015652;28;8860;-59
2023/07/07 09:14:04;;;;;;;;;3.40;1.80;;;;;26.21;45.03;100306.72;5015364;28;9706;-58
2023/07/07 09:16:32;;;;;;;;;2.00;2.00;;;;;26.28;45.12;100302.06;5016224;28;9552;-58
2023/07/07 09:19:00;;;;;;;;;4.60;2.40;;;;;26.33;44.72;100310.44;5032359;28;8848;-59
2023/07/07 09:21:28;;;;;;;;;3.00;3.00;;;;;26.36;45.20;100304.59;5033513;28;8973;-59
2023/07/07 09:23:57;;;;;;;;;2.00;2.00;;;;;26.39;44.93;100311.47;5033817;28;8886;-59
2023/07/07 09:26:24;;;;;;;;;2.00;2.00;;;;;26.44;45.13;100312.53;5034152;28;9516;-59
2023/07/07 09:28:52;;;;;;;;;2.40;2.00;;;;;26.54;44.41;100312.09;5034077;28;8916;-60
2023/07/07 09:31:20;;;;;;;;;2.00;2.00;;;;;26.62;44.26;100309.97;5034065;28;8848;-59
2023/07/07 09:33:49;;;;;;;;;1.00;1.00;;;;;26.71;44.57;100307.84;5034329;28;8836;-59
2023/07/07 09:36:18;;;;;;;;;2.20;2.20;;;;;26.80;44.34;100307.38;5034270;28;8828;-59
2023/07/07 09:38:46;;;;;;;;;3.00;2.00;;;;;26.94;43.88;100308.97;5034768;28;8855;-59
2023/07/07 09:41:14;;;;;;;;;2.80;2.80;;;;;27.10;43.86;100302.19;5034398;28;8844;-59
2023/07/07 09:43:41;;;;;;;;;1.40;1.20;;;;;27.26;43.23;100302.53;5034218;28;8832;-60
2023/07/07 09:46:21;;;;;;;;;3.00;3.00;;;;;27.48;43.00;100306.56;5033240;28;8851;-59
2023/07/07 09:48:49;;;;;;;;;3.00;3.00;;;;;27.60;42.83;100310.28;5032332;28;8891;-59
2023/07/07 09:51:17;;;;;;;;;2.40;2.20;;;;;27.72;42.23;100305.75;5030912;28;8863;-59
2023/07/07 09:53:46;;;;;;;;;2.40;2.40;;;;;27.85;42.47;100304.84;5014481;28;8848;-59
2023/07/07 09:56:15;;;;;;;;;3.00;2.60;;;;;27.98;41.84;100302.81;5013832;28;8927;-60
2023/07/07 09:58:43;;;;;;;;;2.60;2.60;;;;;28.07;41.45;100304.19;5013648;28;8814;-59
2023/07/07 10:01:11;;;;;;;;;2.00;2.00;;;;;28.26;41.16;100291.34;5012985;28;8818;-59
2023/07/07 10:03:39;;;;;;;;;4.00;3.00;;;;;28.43;40.79;100296.03;5013235;28;8860;-60
2023/07/07 10:06:07;;;;;;;;;2.20;2.20;;;;;28.54;40.47;100286.22;5014356;28;8941;-60
2023/07/07 10:08:36;;;;;;;;;2.80;2.80;;;;;28.77;40.07;100292.69;5012779;28;8889;-60
2023/07/07 10:11:06;;;;;;;;;0.00;0.00;;;;;29.05;39.65;100284.72;5014938;28;8822;-60
2023/07/07 10:13:54;;;;;;;;;3.00;3.00;;;;;29.44;38.59;100289.59;5012359;28;9000;-59
2023/07/07 10:16:22;;;;;;;;;3.00;2.60;;;;;29.78;38.88;100297.13;5013064;28;9789;-60
2023/07/07 10:18:50;;;;;;;;;12.40;11.40;;;;;30.17;37.50;100296.44;5019154;28;8909;-59
2023/07/07 10:21:21;;;;;;;;;4.40;4.00;;;;;30.54;37.46;100286.00;5032828;28;8828;-61
2023/07/07 10:23:49;;;;;;;;;2.00;2.00;;;;;30.88;37.26;100285.94;5030027;28;8865;-60
2023/07/07 10:26:17;;;;;;;;;2.00;2.00;;;;;31.25;36.67;100285.31;5029939;28;8828;-59
2023/07/07 10:28:44;;;;;;;;;2.40;2.00;;;;;31.65;36.18;100296.22;5033104;28;8856;-59
2023/07/07 10:31:13;;;;;;;;;3.00;2.40;;;;;32.00;35.85;100283.00;5032959;28;8820;-60
2023/07/07 10:33:41;;;;;;;;;2.40;2.40;;;;;32.43;35.64;100283.13;5032867;28;8816;-60
2023/07/07 10:36:09;;;;;;;;;3.00;2.60;;;;;32.75;35.39;100281.38;5033410;28;8844;-60
2023/07/07 10:38:37;;;;;;;;;2.40;2.40;;;;;33.02;34.63;100282.25;5030984;28;8852;-59
2023/07/07 10:41:22;;;;;;;;;12.80;11.60;;;;;33.25;34.36;100277.31;5032429;28;8843;-59
2023/07/07 10:43:50;;;;;;;;;8.40;7.00;;;;;33.51;34.81;100273.69;5028581;28;8825;-59
2023/07/07 10:46:18;;;;;;;;;4.00;4.00;;;;;33.85;34.01;100271.50;5013241;28;8842;-60
2023/07/07 10:48:46;;;;;;;;;4.00;4.00;;;;;34.04;33.79;100270.00;5013544;28;8878;-59
2023/07/07 10:51:16;;;;;;;;;2.20;2.00;;;;;34.17;33.34;100269.50;5013498;28;8833;-60
2023/07/07 10:53:44;;;;;;;;;4.80;4.60;;;;;34.37;33.40;100273.28;5014282;28;8822;-60
2023/07/07 10:56:14;;;;;;;;;2.00;2.00;;;;;34.62;33.25;100264.25;5027775;28;9486;-60
2023/07/07 10:58:45;;;;;;;;;4.60;4.40;;;;;34.82;32.86;100261.59;5031165;28;8958;-59
2023/07/07 11:01:15;;;;;;;;;1.80;1.80;;;;;34.98;32.69;100266.06;5033027;28;8836;-61
2023/07/07 11:03:42;;;;;;;;;3.00;3.00;;;;;35.14;32.62;100265.00;5030921;28;8822;-60
2023/07/07 11:06:11;;;;;;;;;4.60;4.60;;;;;35.28;32.40;100260.63;5032702;28;8836;-59
2023/07/07 11:08:39;;;;;;;;;3.00;3.00;;;;;35.50;32.16;100261.22;5031423;28;9505;-59
2023/07/07 11:11:07;;;;;;;;;3.80;3.20;;;;;35.65;32.10;100256.50;5032579;28;8944;-59
2023/07/07 11:13:35;;;;;;;;;3.80;3.00;;;;;35.67;31.46;100254.31;5032047;28;8886;-60
2023/07/07 11:16:03;;;;;;;;;1.20;1.20;;;;;35.55;32.12;100247.34;5031817;28;8836;-60
2023/07/07 11:18:31;;;;;;;;;2.00;1.00;;;;;35.65;31.52;100253.75;5025385;28;8996;-60
2023/07/07 11:20:59;;;;;;;;;3.60;3.00;;;;;35.84;31.45;100248.47;5026787;28;8828;-61
2023/07/07 11:23:27;;;;;;;;;3.00;2.60;;;;;36.04;31.21;100247.31;5032678;28;9640;-60
2023/07/07 11:25:55;;;;;;;;;3.00;3.00;;;;;36.02;31.13;100243.16;5032695;28;8856;-60
2023/07/07 11:28:23;;;;;;;;;3.00;3.00;;;;;36.11;30.81;100249.81;5031537;28;8844;-60
2023/07/07 11:30:51;;;;;;;;;3.00;3.00;;;;;36.25;30.79;100250.91;5033096;28;8832;-60
2023/07/07 11:33:20;;;;;;;;;3.00;3.00;;;;;36.45;30.67;100239.75;5032217;28;8832;-60
2023/07/07 11:35:48;;;;;;;;;2.00;2.00;;;;;36.74;30.66;100240.78;5032534;28;8871;-60
2023/07/07 11:38:16;;;;;;;;;2.40;2.40;;;;;37.07;30.17;100231.72;5032366;28;8866;-60
2023/07/07 11:40:44;;;;;;;;;3.60;3.60;;;;;37.33;30.03;100228.47;5031979;28;8928;-61